2014 Trail Trot 5k
Bala Cynwyd, PA (Cynwyd Heritage Trail) 6/1/2014
Timed by Bryn Mawr Racing Company

Place Name Div/Tot Div Age Sex Time Pace
1 Andy kish 1/4 M3039 34 M 15:45 5:04
2 Xavier Cachon 1/13 M0119 19 M 16:01 5:10
3 Andrew Bove 1/14 M4049 41 M 17:20 5:35
4 Joey Litvin 2/13 M0119 12 M 17:54 5:46
5 Joseph McAfee 2/14 M4049 46 M 19:02 6:08
6 David Webb 3/14 M4049 40 M 19:59 6:26
7 Julie Brothers 1/15 F4049 42 F 20:06 6:28
8 Jake Bosin 1/4 M2029 21 M 20:13 6:31
9 Darrin Freeman 4/14 M4049 46 M 20:21 6:33
10 Adam Kosto 5/14 M4049 46 M 20:42 6:40
11 Suby Ross 2/4 M3039 39 M 20:47 6:42
12 Frankie McGuire 1/9 M5099 56 M 20:51 6:43
13 Matthew Reiff 2/4 M2029 29 M 20:53 6:44
14 Juan Dominguez 6/14 M4049 47 M 21:21 6:53
15 Charlie Herrmann 3/13 M0119 12 M 21:52 7:03
16 Steven Goldsmith 7/14 M4049 40 M 22:14 7:10
17 Thomas Batteur 4/13 M0119 11 M 22:18 7:11
18 Amy Cuff 1/3 F2029 28 F 22:47 7:20
19 Simon Schmieder 5/13 M0119 10 M 23:33 7:35
20 Riccardo Boeri 6/13 M0119 12 M 23:37 7:36
21 Jules Bruno 7/13 M0119 11 M 23:41 7:38
22 Caryn Karmatz Rudy 2/15 F4049 43 F 23:44 7:39
23 Nelly Bruno 3/15 F4049 42 F 24:07 7:46
24 Scott Savett 3/4 M3039 34 M 24:34 7:55
25 Shari Moskow 4/15 F4049 44 F 24:39 7:56
26 Mike Gross 8/14 M4049 44 M 24:47 7:59
27 Donald Rice 3/4 M2029 28 M 24:48 7:59
28 Lee Rudy 9/14 M4049 44 M 25:12 8:07
29 Dan Bosin 2/9 M5099 54 M 25:29 8:12
30 JENNA Conrad 1/7 F3039 38 F 25:31 8:13
31 Marisa Brown 2/7 F3039 31 F 25:39 8:16
32 Eleanor Rand 1/7 F0119 17 F 25:44 8:17
33 Spencer Rand 3/9 M5099 52 M 25:44 8:17
34 Andrea Troxel 5/15 F4049 44 F 25:52 8:20
35 Lisa Hoffstein 1/4 F5099 54 F 26:00 8:22
36 Shani Savett 3/7 F3039 37 F 26:10 8:26
37 JEssica Siegel 4/7 F3039 32 F 26:21 8:29
38 Elizabeth Baase 5/7 F3039 30 F 26:22 8:30
39 Jonathan Tenthoff 4/4 M3039 35 M 26:29 8:32
40 Frank Schmieder 4/9 M5099 55 M 26:31 8:32
41 Ethan Murray 8/13 M0119 8 M 26:39 8:35
42 Max Schmieder 9/13 M0119 8 M 26:40 8:35
43 Tristan Chopinez 10/13 M0119 11 M 26:47 8:38
44 Fabrice Chopinez 10/14 M4049 42 M 26:48 8:38
45 Gaelle Chopinez 6/7 F3039 39 F 26:49 8:38
46 Sophie Batteur 6/15 F4049 44 F 26:49 8:38
47 Laura Brennan 2/4 F5099 50 F 26:56 8:40
48 Justin Cannan 11/13 M0119 12 M 26:59 8:41
49 Joella Adams 2/3 F2029 27 F 26:59 8:42
50 Ryan Byrne 12/13 M0119 11 M 27:25 8:50
51 Kelli Byrne 7/15 F4049 42 F 27:27 8:50
52 Charlie Altman 13/13 M0119 14 M 27:29 8:51
53 Madeleine Friel 3/3 F2029 24 F 27:43 8:56
54 David Yadgaroff 11/14 M4049 46 M 28:05 9:03
55 Fanny Chopinez 2/7 F0119 13 F 28:16 9:06
56 Margaut Berland 3/7 F0119 13 F 28:23 9:08
57 JC Berland 5/9 M5099 52 M 28:25 9:09
58 phil steel 6/9 M5099 79 M 28:29 9:10
59 Chere Kagan 8/15 F4049 45 F 28:59 9:20
60 Deborah Ledley 9/15 F4049 41 F 29:03 9:21
61 Tara Webb 10/15 F4049 41 F 29:19 9:27
62 Clare Sautter 3/4 F5099 50 F 29:40 9:33
63 Francesca Menzione 11/15 F4049 47 F 30:12 9:43
64 Diego Boeri 12/14 M4049 47 M 30:21 9:46
65 Kylie Costello 13/14 M4049 44 M 30:28 9:49
66 Christina Borgeest 12/15 F4049 46 F 30:34 9:51
67 Samuel Miller 7/9 M5099 68 M 30:37 9:52
68 Evelyn Mastiglio 4/7 F0119 8 F 30:38 9:52
69 Betsy Mastiglio 13/15 F4049 40 F 30:39 9:52
70 Frankie Fitzpatrick 5/7 F0119 10 F 33:27 10:46
71 JoAnn McDevitt 4/4 F5099 62 F 33:31 10:47
72 Priscilla Fitzpatrick 14/15 F4049 45 F 33:42 10:51
73 Amy Brooks 7/7 F3039 38 F 34:59 11:16
74 Greg Baase 4/4 M2029 29 M 35:24 11:24
75 BOB BoND 8/9 M5099 72 M 37:35 12:06
76 Megan Murray 6/7 F0119 10 F 38:55 12:32
77 Cadence Freeman 7/7 F0119 10 F 38:56 12:32
78 Gillian Shay 15/15 F4049 42 F 57:15 18:26
79 Frank. Buck ONeill 9/9 M5099 69 M 57:15 18:26
80 Dixon Shay 14/14 M4049 42 M 57:16 18:26